sensor_id;sensor_type;location;lat;lon;timestamp;temperature;humidity
3528;DHT22;1778;47.966;7.854;2023-03-21T00:00:24;6.60;99.90
3528;DHT22;1778;47.966;7.854;2023-03-21T00:01:26;6.60;99.90
3528;DHT22;1778;47.966;7.854;2023-03-21T00:02:27;6.50;99.90
3528;DHT22;1778;47.966;7.854;2023-03-21T00:03:31;6.50;99.90
3528;DHT22;1778;47.966;7.854;2023-03-21T00:04:33;6.50;99.90
3528;DHT22;1778;47.966;7.854;2023-03-21T00:05:51;6.50;99.90
3528;DHT22;1778;47.966;7.854;2023-03-21T00:06:54;6.50;99.90
3528;DHT22;1778;47.966;7.854;2023-03-21T00:07:55;6.40;99.90
3528;DHT22;1778;47.966;7.854;2023-03-21T00:08:57;6.40;99.90
3528;DHT22;1778;47.966;7.854;2023-03-21T00:09:58;6.40;99.90
3528;DHT22;1778;47.966;7.854;2023-03-21T00:11:14;6.40;99.90
3528;DHT22;1778;47.966;7.854;2023-03-21T00:12:16;6.40;99.90
3528;DHT22;1778;47.966;7.854;2023-03-21T00:13:21;6.40;99.90
3528;DHT22;1778;47.966;7.854;2023-03-21T00:14:23;6.40;99.90
3528;DHT22;1778;47.966;7.854;2023-03-21T00:15:26;6.40;99.90
3528;DHT22;1778;47.966;7.854;2023-03-21T00:16:44;6.50;99.90
3528;DHT22;1778;47.966;7.854;2023-03-21T00:17:57;6.50;99.90
3528;DHT22;1778;47.966;7.854;2023-03-21T00:19:03;6.40;99.90
3528;DHT22;1778;47.966;7.854;2023-03-21T00:20:07;6.40;99.90
3528;DHT22;1778;47.966;7.854;2023-03-21T00:21:40;6.40;99.90
3528;DHT22;1778;47.966;7.854;2023-03-21T00:23:03;6.30;99.90
3528;DHT22;1778;47.966;7.854;2023-03-21T00:24:05;6.20;99.90
3528;DHT22;1778;47.966;7.854;2023-03-21T00:25:08;6.30;99.90
3528;DHT22;1778;47.966;7.854;2023-03-21T00:26:10;6.20;99.90
3528;DHT22;1778;47.966;7.854;2023-03-21T00:27:12;6.30;99.90
3528;DHT22;1778;47.966;7.854;2023-03-21T00:28:34;6.20;99.90
3528;DHT22;1778;47.966;7.854;2023-03-21T00:29:35;6.20;99.90
3528;DHT22;1778;47.966;7.854;2023-03-21T00:30:39;6.20;99.90
3528;DHT22;1778;47.966;7.854;2023-03-21T00:31:40;6.20;99.90
3528;DHT22;1778;47.966;7.854;2023-03-21T00:32:42;6.20;99.90
3528;DHT22;1778;47.966;7.854;2023-03-21T00:33:56;6.20;99.90
3528;DHT22;1778;47.966;7.854;2023-03-21T00:34:57;6.20;99.90
3528;DHT22;1778;47.966;7.854;2023-03-21T00:36:19;6.20;99.90
3528;DHT22;1778;47.966;7.854;2023-03-21T00:37:21;6.20;99.90
3528;DHT22;1778;47.966;7.854;2023-03-21T00:38:23;6.10;99.90
3528;DHT22;1778;47.966;7.854;2023-03-21T00:39:25;6.10;99.90
3528;DHT22;1778;47.966;7.854;2023-03-21T00:40:27;6.10;99.90
3528;DHT22;1778;47.966;7.854;2023-03-21T00:41:37;6.10;99.90
3528;DHT22;1778;47.966;7.854;2023-03-21T00:42:43;6.10;99.90
3528;DHT22;1778;47.966;7.854;2023-03-21T00:43:44;6.10;99.90
3528;DHT22;1778;47.966;7.854;2023-03-21T00:44:47;6.10;99.90
3528;DHT22;1778;47.966;7.854;2023-03-21T00:45:50;6.10;99.90
3528;DHT22;1778;47.966;7.854;2023-03-21T00:46:51;6.10;99.90
3528;DHT22;1778;47.966;7.854;2023-03-21T00:48:08;6.00;99.90
3528;DHT22;1778;47.966;7.854;2023-03-21T00:49:10;5.90;99.90
3528;DHT22;1778;47.966;7.854;2023-03-21T00:50:14;6.00;99.90
3528;DHT22;1778;47.966;7.854;2023-03-21T00:51:21;6.00;99.90
3528;DHT22;1778;47.966;7.854;2023-03-21T00:52:27;6.00;99.90
3528;DHT22;1778;47.966;7.854;2023-03-21T00:53:41;5.90;99.90
3528;DHT22;1778;47.966;7.854;2023-03-21T00:54:43;6.00;99.90
3528;DHT22;1778;47.966;7.854;2023-03-21T00:55:45;5.90;99.90
3528;DHT22;1778;47.966;7.854;2023-03-21T00:56:48;6.00;99.90
3528;DHT22;1778;47.966;7.854;2023-03-21T00:57:49;6.00;99.90
3528;DHT22;1778;47.966;7.854;2023-03-21T00:59:02;5.90;99.90
3528;DHT22;1778;47.966;7.854;2023-03-21T01:00:04;5.90;99.90
3528;DHT22;1778;47.966;7.854;2023-03-21T01:01:08;5.90;99.90
3528;DHT22;1778;47.966;7.854;2023-03-21T01:02:11;5.90;99.90
3528;DHT22;1778;47.966;7.854;2023-03-21T01:03:23;5.90;99.90
3528;DHT22;1778;47.966;7.854;2023-03-21T01:04:27;5.90;99.90
3528;DHT22;1778;47.966;7.854;2023-03-21T01:05:31;5.90;99.90
3528;DHT22;1778;47.966;7.854;2023-03-21T01:06:52;5.90;99.90
3528;DHT22;1778;47.966;7.854;2023-03-21T01:07:54;5.80;99.90
3528;DHT22;1778;47.966;7.854;2023-03-21T01:08:56;5.80;99.90
3528;DHT22;1778;47.966;7.854;2023-03-21T01:09:57;5.80;99.90
3528;DHT22;1778;47.966;7.854;2023-03-21T01:11:05;5.80;99.90
3528;DHT22;1778;47.966;7.854;2023-03-21T01:12:07;5.80;99.90
3528;DHT22;1778;47.966;7.854;2023-03-21T01:13:12;5.90;99.90
3528;DHT22;1778;47.966;7.854;2023-03-21T01:14:16;5.90;99.90
3528;DHT22;1778;47.966;7.854;2023-03-21T01:15:23;6.00;99.90
3528;DHT22;1778;47.966;7.854;2023-03-21T01:16:26;5.90;99.90
3528;DHT22;1778;47.966;7.854;2023-03-21T01:17:27;5.90;99.90
3528;DHT22;1778;47.966;7.854;2023-03-21T01:18:29;5.90;99.90
3528;DHT22;1778;47.966;7.854;2023-03-21T01:19:30;5.90;99.90
3528;DHT22;1778;47.966;7.854;2023-03-21T01:20:51;5.90;99.90
3528;DHT22;1778;47.966;7.854;2023-03-21T01:21:53;5.80;99.90
3528;DHT22;1778;47.966;7.854;2023-03-21T01:22:54;5.80;99.90
3528;DHT22;1778;47.966;7.854;2023-03-21T01:23:56;5.80;99.90
3528;DHT22;1778;47.966;7.854;2023-03-21T01:24:57;5.80;99.90
3528;DHT22;1778;47.966;7.854;2023-03-21T01:26:19;5.80;99.90
3528;DHT22;1778;47.966;7.854;2023-03-21T01:27:20;5.80;99.90
3528;DHT22;1778;47.966;7.854;2023-03-21T01:28:25;5.80;99.90
3528;DHT22;1778;47.966;7.854;2023-03-21T01:29:27;5.80;99.90
3528;DHT22;1778;47.966;7.854;2023-03-21T01:30:31;5.80;99.90
3528;DHT22;1778;47.966;7.854;2023-03-21T01:31:40;5.70;99.90
3528;DHT22;1778;47.966;7.854;2023-03-21T01:32:41;5.70;99.90
3528;DHT22;1778;47.966;7.854;2023-03-21T01:33:45;5.70;99.90
3528;DHT22;1778;47.966;7.854;2023-03-21T01:34:49;5.70;99.90
3528;DHT22;1778;47.966;7.854;2023-03-21T01:35:51;5.70;99.90
3528;DHT22;1778;47.966;7.854;2023-03-21T01:37:10;5.60;99.90
3528;DHT22;1778;47.966;7.854;2023-03-21T01:38:18;5.60;99.90
3528;DHT22;1778;47.966;7.854;2023-03-21T01:39:21;5.60;99.90
3528;DHT22;1778;47.966;7.854;2023-03-21T01:40:25;5.50;99.90
3528;DHT22;1778;47.966;7.854;2023-03-21T01:41:41;5.50;99.90
3528;DHT22;1778;47.966;7.854;2023-03-21T01:42:51;5.50;99.90
3528;DHT22;1778;47.966;7.854;2023-03-21T01:43:54;5.40;99.90
3528;DHT22;1778;47.966;7.854;2023-03-21T01:45:05;5.50;99.90
3528;DHT22;1778;47.966;7.854;2023-03-21T01:54:20;5.30;99.90
3528;DHT22;1778;47.966;7.854;2023-03-21T01:55:25;5.30;99.90
3528;DHT22;1778;47.966;7.854;2023-03-21T01:56:35;5.30;99.90
3528;DHT22;1778;47.966;7.854;2023-03-21T01:57:45;5.40;99.90
3528;DHT22;1778;47.966;7.854;2023-03-21T01:59:16;5.30;99.90
3528;DHT22;1778;47.966;7.854;2023-03-21T02:00:53;5.30;99.90
3528;DHT22;1778;47.966;7.854;2023-03-21T02:02:21;5.20;99.90
3528;DHT22;1778;47.966;7.854;2023-03-21T02:03:33;5.20;99.90
3528;DHT22;1778;47.966;7.854;2023-03-21T02:05:09;5.20;99.90
3528;DHT22;1778;47.966;7.854;2023-03-21T02:06:13;5.20;99.90
3528;DHT22;1778;47.966;7.854;2023-03-21T02:07:28;5.20;99.90
3528;DHT22;1778;47.966;7.854;2023-03-21T02:08:36;5.20;99.90
3528;DHT22;1778;47.966;7.854;2023-03-21T02:09:47;5.20;99.90
3528;DHT22;1778;47.966;7.854;2023-03-21T02:10:53;5.20;99.90
3528;DHT22;1778;47.966;7.854;2023-03-21T02:12:07;5.20;99.90
3528;DHT22;1778;47.966;7.854;2023-03-21T02:13:11;5.30;99.90
3528;DHT22;1778;47.966;7.854;2023-03-21T02:14:17;5.20;99.90
3528;DHT22;1778;47.966;7.854;2023-03-21T02:15:40;5.30;99.90
3528;DHT22;1778;47.966;7.854;2023-03-21T02:17:09;5.20;99.90
3528;DHT22;1778;47.966;7.854;2023-03-21T02:19:38;5.30;99.90
3528;DHT22;1778;47.966;7.854;2023-03-21T02:22:35;5.30;99.90
3528;DHT22;1778;47.966;7.854;2023-03-21T02:26:45;5.20;99.90
3528;DHT22;1778;47.966;7.854;2023-03-21T02:28:13;5.20;99.90
3528;DHT22;1778;47.966;7.854;2023-03-21T02:32:05;5.20;99.90
3528;DHT22;1778;47.966;7.854;2023-03-21T02:35:06;5.10;99.90
3528;DHT22;1778;47.966;7.854;2023-03-21T02:36:23;5.10;99.90
3528;DHT22;1778;47.966;7.854;2023-03-21T02:37:41;5.00;99.90
3528;DHT22;1778;47.966;7.854;2023-03-21T02:39:15;5.00;99.90
3528;DHT22;1778;47.966;7.854;2023-03-21T02:40:31;5.00;99.90
3528;DHT22;1778;47.966;7.854;2023-03-21T02:41:47;5.00;99.90
3528;DHT22;1778;47.966;7.854;2023-03-21T02:43:14;5.00;99.90
3528;DHT22;1778;47.966;7.854;2023-03-21T02:45:55;5.00;99.90
3528;DHT22;1778;47.966;7.854;2023-03-21T02:47:06;5.00;99.90
3528;DHT22;1778;47.966;7.854;2023-03-21T02:48:15;5.00;99.90
3528;DHT22;1778;47.966;7.854;2023-03-21T02:49:41;5.00;99.90
3528;DHT22;1778;47.966;7.854;2023-03-21T02:50:52;5.00;99.90
3528;DHT22;1778;47.966;7.854;2023-03-21T02:52:14;5.00;99.90
3528;DHT22;1778;47.966;7.854;2023-03-21T02:53:39;5.00;99.90
3528;DHT22;1778;47.966;7.854;2023-03-21T02:54:42;5.00;99.90
3528;DHT22;1778;47.966;7.854;2023-03-21T02:55:59;5.10;99.90
3528;DHT22;1778;47.966;7.854;2023-03-21T02:57:05;5.10;99.90
3528;DHT22;1778;47.966;7.854;2023-03-21T02:58:09;5.10;99.90
3528;DHT22;1778;47.966;7.854;2023-03-21T02:59:20;5.10;99.90
3528;DHT22;1778;47.966;7.854;2023-03-21T03:00:29;5.10;99.90
3528;DHT22;1778;47.966;7.854;2023-03-21T03:01:31;5.10;99.90
3528;DHT22;1778;47.966;7.854;2023-03-21T03:02:35;5.00;99.90
3528;DHT22;1778;47.966;7.854;2023-03-21T03:03:36;4.90;99.90
3528;DHT22;1778;47.966;7.854;2023-03-21T03:04:39;4.90;99.90
3528;DHT22;1778;47.966;7.854;2023-03-21T03:05:51;5.00;99.90
3528;DHT22;1778;47.966;7.854;2023-03-21T03:08:10;5.00;99.90
3528;DHT22;1778;47.966;7.854;2023-03-21T03:09:42;5.00;99.90
3528;DHT22;1778;47.966;7.854;2023-03-21T03:14:07;4.90;99.90
3528;DHT22;1778;47.966;7.854;2023-03-21T03:16:53;4.90;99.90
3528;DHT22;1778;47.966;7.854;2023-03-21T03:20:17;5.00;99.90
3528;DHT22;1778;47.966;7.854;2023-03-21T03:22:45;4.90;99.90
3528;DHT22;1778;47.966;7.854;2023-03-21T03:25:08;4.90;99.90
3528;DHT22;1778;47.966;7.854;2023-03-21T03:27:39;4.80;99.90
3528;DHT22;1778;47.966;7.854;2023-03-21T03:28:46;4.70;99.90
3528;DHT22;1778;47.966;7.854;2023-03-21T03:29:51;4.70;99.90
3528;DHT22;1778;47.966;7.854;2023-03-21T03:30:58;4.70;99.90
3528;DHT22;1778;47.966;7.854;2023-03-21T03:32:21;4.70;99.90
3528;DHT22;1778;47.966;7.854;2023-03-21T03:33:26;4.70;99.90
3528;DHT22;1778;47.966;7.854;2023-03-21T03:34:31;4.70;99.90
3528;DHT22;1778;47.966;7.854;2023-03-21T03:35:35;4.70;99.90
3528;DHT22;1778;47.966;7.854;2023-03-21T03:36:41;4.70;99.90
3528;DHT22;1778;47.966;7.854;2023-03-21T03:37:52;4.70;99.90
3528;DHT22;1778;47.966;7.854;2023-03-21T03:38:56;4.80;99.90
3528;DHT22;1778;47.966;7.854;2023-03-21T03:40:07;4.70;99.90
3528;DHT22;1778;47.966;7.854;2023-03-21T03:41:24;4.70;99.90
3528;DHT22;1778;47.966;7.854;2023-03-21T03:42:45;4.70;99.90
3528;DHT22;1778;47.966;7.854;2023-03-21T03:43:57;4.70;99.90
3528;DHT22;1778;47.966;7.854;2023-03-21T03:45:04;4.70;99.90
3528;DHT22;1778;47.966;7.854;2023-03-21T03:46:27;4.70;99.90
3528;DHT22;1778;47.966;7.854;2023-03-21T03:47:57;4.60;99.90
3528;DHT22;1778;47.966;7.854;2023-03-21T03:49:15;4.70;99.90
3528;DHT22;1778;47.966;7.854;2023-03-21T03:53:18;4.70;99.90
3528;DHT22;1778;47.966;7.854;2023-03-21T03:54:30;4.80;99.90
3528;DHT22;1778;47.966;7.854;2023-03-21T03:55:35;4.70;99.90
3528;DHT22;1778;47.966;7.854;2023-03-21T03:56:43;4.70;99.90
3528;DHT22;1778;47.966;7.854;2023-03-21T03:57:46;4.80;99.90
3528;DHT22;1778;47.966;7.854;2023-03-21T03:58:48;4.80;99.90
3528;DHT22;1778;47.966;7.854;2023-03-21T03:59:53;4.80;99.90
3528;DHT22;1778;47.966;7.854;2023-03-21T04:00:59;4.80;99.90
3528;DHT22;1778;47.966;7.854;2023-03-21T04:02:00;4.80;99.90
3528;DHT22;1778;47.966;7.854;2023-03-21T04:03:03;4.80;99.90
3528;DHT22;1778;47.966;7.854;2023-03-21T04:04:07;4.80;99.90
3528;DHT22;1778;47.966;7.854;2023-03-21T04:05:17;4.80;99.90
3528;DHT22;1778;47.966;7.854;2023-03-21T04:06:21;4.80;99.90
3528;DHT22;1778;47.966;7.854;2023-03-21T04:07:25;4.80;99.90
3528;DHT22;1778;47.966;7.854;2023-03-21T04:08:31;4.70;99.90
3528;DHT22;1778;47.966;7.854;2023-03-21T04:09:32;4.80;99.90
3528;DHT22;1778;47.966;7.854;2023-03-21T04:10:45;4.80;99.90
3528;DHT22;1778;47.966;7.854;2023-03-21T04:11:47;4.80;99.90
3528;DHT22;1778;47.966;7.854;2023-03-21T04:12:49;4.80;99.90
3528;DHT22;1778;47.966;7.854;2023-03-21T04:14:01;4.80;99.90
3528;DHT22;1778;47.966;7.854;2023-03-21T04:15:03;4.70;99.90
3528;DHT22;1778;47.966;7.854;2023-03-21T04:16:19;4.70;99.90
3528;DHT22;1778;47.966;7.854;2023-03-21T04:17:21;4.70;99.90
3528;DHT22;1778;47.966;7.854;2023-03-21T04:18:22;4.70;99.90
3528;DHT22;1778;47.966;7.854;2023-03-21T04:19:24;4.70;99.90
3528;DHT22;1778;47.966;7.854;2023-03-21T04:20:26;4.80;99.90
3528;DHT22;1778;47.966;7.854;2023-03-21T04:21:38;4.70;99.90
3528;DHT22;1778;47.966;7.854;2023-03-21T04:22:40;4.80;99.90
3528;DHT22;1778;47.966;7.854;2023-03-21T04:23:41;4.80;99.90
3528;DHT22;1778;47.966;7.854;2023-03-21T04:24:43;4.80;99.90
3528;DHT22;1778;47.966;7.854;2023-03-21T04:25:46;4.80;99.90
3528;DHT22;1778;47.966;7.854;2023-03-21T04:27:02;4.80;99.90
3528;DHT22;1778;47.966;7.854;2023-03-21T04:28:15;4.80;99.90
3528;DHT22;1778;47.966;7.854;2023-03-21T04:29:21;4.80;99.90
3528;DHT22;1778;47.966;7.854;2023-03-21T04:30:43;4.80;99.90
3528;DHT22;1778;47.966;7.854;2023-03-21T04:32:03;4.80;99.90
3528;DHT22;1778;47.966;7.854;2023-03-21T04:33:06;4.80;99.90
3528;DHT22;1778;47.966;7.854;2023-03-21T04:34:08;4.80;99.90
3528;DHT22;1778;47.966;7.854;2023-03-21T04:35:16;4.80;99.90
3528;DHT22;1778;47.966;7.854;2023-03-21T04:36:17;4.80;99.90
3528;DHT22;1778;47.966;7.854;2023-03-21T04:37:31;4.80;99.90
3528;DHT22;1778;47.966;7.854;2023-03-21T04:38:35;4.80;99.90
3528;DHT22;1778;47.966;7.854;2023-03-21T04:39:38;4.80;99.90
3528;DHT22;1778;47.966;7.854;2023-03-21T04:40:39;4.90;99.90
3528;DHT22;1778;47.966;7.854;2023-03-21T04:41:42;4.80;99.90
3528;DHT22;1778;47.966;7.854;2023-03-21T04:42:45;4.80;99.90
3528;DHT22;1778;47.966;7.854;2023-03-21T04:43:47;4.80;99.90
3528;DHT22;1778;47.966;7.854;2023-03-21T04:44:49;4.70;99.90
3528;DHT22;1778;47.966;7.854;2023-03-21T04:45:51;4.70;99.90
3528;DHT22;1778;47.966;7.854;2023-03-21T04:46:53;4.70;99.90
3528;DHT22;1778;47.966;7.854;2023-03-21T04:47:55;4.70;99.90
3528;DHT22;1778;47.966;7.854;2023-03-21T04:48:58;4.70;99.90
3528;DHT22;1778;47.966;7.854;2023-03-21T04:49:59;4.70;99.90
3528;DHT22;1778;47.966;7.854;2023-03-21T04:51:01;4.70;99.90
3528;DHT22;1778;47.966;7.854;2023-03-21T04:52:04;4.70;99.90
3528;DHT22;1778;47.966;7.854;2023-03-21T04:53:07;4.80;99.90
3528;DHT22;1778;47.966;7.854;2023-03-21T04:54:09;4.80;99.90
3528;DHT22;1778;47.966;7.854;2023-03-21T04:55:11;4.70;99.90
3528;DHT22;1778;47.966;7.854;2023-03-21T04:56:12;4.70;99.90
3528;DHT22;1778;47.966;7.854;2023-03-21T04:57:14;4.70;99.90
3528;DHT22;1778;47.966;7.854;2023-03-21T04:58:16;4.70;99.90
3528;DHT22;1778;47.966;7.854;2023-03-21T04:59:20;4.70;99.90
3528;DHT22;1778;47.966;7.854;2023-03-21T05:00:22;4.70;99.90
3528;DHT22;1778;47.966;7.854;2023-03-21T05:01:24;4.70;99.90
3528;DHT22;1778;47.966;7.854;2023-03-21T05:02:30;4.70;99.90
3528;DHT22;1778;47.966;7.854;2023-03-21T05:03:33;4.70;99.90
3528;DHT22;1778;47.966;7.854;2023-03-21T05:04:40;4.80;99.90
3528;DHT22;1778;47.966;7.854;2023-03-21T05:05:42;4.80;99.90
3528;DHT22;1778;47.966;7.854;2023-03-21T05:06:45;4.80;99.90
3528;DHT22;1778;47.966;7.854;2023-03-21T05:07:49;4.80;99.90
3528;DHT22;1778;47.966;7.854;2023-03-21T05:08:51;4.70;99.90
3528;DHT22;1778;47.966;7.854;2023-03-21T05:09:52;4.80;99.90
3528;DHT22;1778;47.966;7.854;2023-03-21T05:10:54;4.80;99.90
3528;DHT22;1778;47.966;7.854;2023-03-21T05:11:58;4.80;99.90
3528;DHT22;1778;47.966;7.854;2023-03-21T05:13:03;4.70;99.90
3528;DHT22;1778;47.966;7.854;2023-03-21T05:14:08;4.80;99.90
3528;DHT22;1778;47.966;7.854;2023-03-21T05:15:10;4.80;99.90
3528;DHT22;1778;47.966;7.854;2023-03-21T05:16:12;4.70;99.90
3528;DHT22;1778;47.966;7.854;2023-03-21T05:17:13;4.80;99.90
3528;DHT22;1778;47.966;7.854;2023-03-21T05:18:24;4.80;99.90
3528;DHT22;1778;47.966;7.854;2023-03-21T05:19:39;4.70;99.90
3528;DHT22;1778;47.966;7.854;2023-03-21T05:20:41;4.70;99.90
3528;DHT22;1778;47.966;7.854;2023-03-21T05:21:43;4.70;99.90
3528;DHT22;1778;47.966;7.854;2023-03-21T05:22:58;4.80;99.90
3528;DHT22;1778;47.966;7.854;2023-03-21T05:24:00;4.80;99.90
3528;DHT22;1778;47.966;7.854;2023-03-21T05:25:08;4.80;99.90
3528;DHT22;1778;47.966;7.854;2023-03-21T05:26:22;4.80;99.90
3528;DHT22;1778;47.966;7.854;2023-03-21T05:27:33;4.80;99.90
3528;DHT22;1778;47.966;7.854;2023-03-21T05:28:39;4.80;99.90
3528;DHT22;1778;47.966;7.854;2023-03-21T05:29:41;4.80;99.90
3528;DHT22;1778;47.966;7.854;2023-03-21T05:30:45;4.80;99.90
3528;DHT22;1778;47.966;7.854;2023-03-21T05:31:47;4.80;99.90
3528;DHT22;1778;47.966;7.854;2023-03-21T05:32:48;4.80;99.90
3528;DHT22;1778;47.966;7.854;2023-03-21T05:33:52;4.80;99.90
3528;DHT22;1778;47.966;7.854;2023-03-21T05:34:54;4.80;99.90
3528;DHT22;1778;47.966;7.854;2023-03-21T05:35:56;4.80;99.90
3528;DHT22;1778;47.966;7.854;2023-03-21T05:37:02;4.80;99.90
3528;DHT22;1778;47.966;7.854;2023-03-21T05:38:16;4.70;99.90
3528;DHT22;1778;47.966;7.854;2023-03-21T05:39:24;4.70;99.90
3528;DHT22;1778;47.966;7.854;2023-03-21T05:40:47;4.70;99.90
3528;DHT22;1778;47.966;7.854;2023-03-21T05:41:50;4.70;99.90
3528;DHT22;1778;47.966;7.854;2023-03-21T05:42:52;4.70;99.90
3528;DHT22;1778;47.966;7.854;2023-03-21T05:43:56;4.70;99.90
3528;DHT22;1778;47.966;7.854;2023-03-21T05:44:57;4.60;99.90
3528;DHT22;1778;47.966;7.854;2023-03-21T05:46:04;4.70;99.90
3528;DHT22;1778;47.966;7.854;2023-03-21T05:47:07;4.80;99.90
3528;DHT22;1778;47.966;7.854;2023-03-21T05:48:17;4.80;99.90
3528;DHT22;1778;47.966;7.854;2023-03-21T05:49:38;4.80;99.90
3528;DHT22;1778;47.966;7.854;2023-03-21T05:50:39;4.80;99.90
3528;DHT22;1778;47.966;7.854;2023-03-21T05:51:50;4.90;99.90
3528;DHT22;1778;47.966;7.854;2023-03-21T05:52:51;4.80;99.90
3528;DHT22;1778;47.966;7.854;2023-03-21T05:53:53;4.80;99.90
3528;DHT22;1778;47.966;7.854;2023-03-21T05:54:56;4.90;99.90
3528;DHT22;1778;47.966;7.854;2023-03-21T05:55:58;4.90;99.90
3528;DHT22;1778;47.966;7.854;2023-03-21T05:57:15;4.80;99.90
3528;DHT22;1778;47.966;7.854;2023-03-21T05:58:29;4.80;99.90
3528;DHT22;1778;47.966;7.854;2023-03-21T05:59:30;4.90;99.90
3528;DHT22;1778;47.966;7.854;2023-03-21T06:00:32;4.90;99.90
3528;DHT22;1778;47.966;7.854;2023-03-21T06:01:49;4.90;99.90
3528;DHT22;1778;47.966;7.854;2023-03-21T06:02:51;4.90;99.90
3528;DHT22;1778;47.966;7.854;2023-03-21T06:04:06;4.90;99.90
3528;DHT22;1778;47.966;7.854;2023-03-21T06:05:09;4.90;99.90
3528;DHT22;1778;47.966;7.854;2023-03-21T06:06:11;5.00;99.90
3528;DHT22;1778;47.966;7.854;2023-03-21T06:07:20;5.00;99.90
3528;DHT22;1778;47.966;7.854;2023-03-21T06:08:23;5.00;99.90
3528;DHT22;1778;47.966;7.854;2023-03-21T06:09:25;5.10;99.90
3528;DHT22;1778;47.966;7.854;2023-03-21T06:10:31;5.10;99.90
3528;DHT22;1778;47.966;7.854;2023-03-21T06:11:37;5.10;99.90
3528;DHT22;1778;47.966;7.854;2023-03-21T06:12:54;5.20;99.90
3528;DHT22;1778;47.966;7.854;2023-03-21T06:14:02;5.20;99.90
3528;DHT22;1778;47.966;7.854;2023-03-21T06:15:05;5.20;99.90
3528;DHT22;1778;47.966;7.854;2023-03-21T06:16:17;5.30;99.90
3528;DHT22;1778;47.966;7.854;2023-03-21T06:17:19;5.30;99.90
3528;DHT22;1778;47.966;7.854;2023-03-21T06:18:26;5.30;99.90
3528;DHT22;1778;47.966;7.854;2023-03-21T06:19:35;5.40;99.90
3528;DHT22;1778;47.966;7.854;2023-03-21T06:20:41;5.40;99.90
3528;DHT22;1778;47.966;7.854;2023-03-21T06:21:45;5.40;99.90
3528;DHT22;1778;47.966;7.854;2023-03-21T06:22:47;5.50;99.90
3528;DHT22;1778;47.966;7.854;2023-03-21T06:23:48;5.50;99.90
3528;DHT22;1778;47.966;7.854;2023-03-21T06:25:18;5.60;99.90
3528;DHT22;1778;47.966;7.854;2023-03-21T06:26:20;5.60;99.90
3528;DHT22;1778;47.966;7.854;2023-03-21T06:27:25;5.70;99.90
3528;DHT22;1778;47.966;7.854;2023-03-21T06:28:28;5.70;99.90
3528;DHT22;1778;47.966;7.854;2023-03-21T06:29:30;5.80;99.90
3528;DHT22;1778;47.966;7.854;2023-03-21T06:30:32;5.80;99.90
3528;DHT22;1778;47.966;7.854;2023-03-21T06:31:44;5.90;99.90
3528;DHT22;1778;47.966;7.854;2023-03-21T06:32:45;5.90;99.90
3528;DHT22;1778;47.966;7.854;2023-03-21T06:33:51;6.00;99.90
3528;DHT22;1778;47.966;7.854;2023-03-21T06:34:52;5.90;99.90
3528;DHT22;1778;47.966;7.854;2023-03-21T06:35:56;6.00;99.90
3528;DHT22;1778;47.966;7.854;2023-03-21T06:36:58;6.00;99.90
3528;DHT22;1778;47.966;7.854;2023-03-21T06:38:04;6.00;99.90
3528;DHT22;1778;47.966;7.854;2023-03-21T06:39:07;6.00;99.90
3528;DHT22;1778;47.966;7.854;2023-03-21T06:40:13;6.10;99.90
3528;DHT22;1778;47.966;7.854;2023-03-21T06:41:15;6.10;99.90
3528;DHT22;1778;47.966;7.854;2023-03-21T06:42:24;6.20;99.90
3528;DHT22;1778;47.966;7.854;2023-03-21T06:43:32;6.20;99.90
3528;DHT22;1778;47.966;7.854;2023-03-21T06:44:36;6.30;99.90
3528;DHT22;1778;47.966;7.854;2023-03-21T06:45:44;6.30;99.90
3528;DHT22;1778;47.966;7.854;2023-03-21T06:46:46;6.40;99.90
3528;DHT22;1778;47.966;7.854;2023-03-21T06:47:51;6.40;99.90
3528;DHT22;1778;47.966;7.854;2023-03-21T06:49:17;6.50;99.90
3528;DHT22;1778;47.966;7.854;2023-03-21T06:50:19;6.50;99.90
3528;DHT22;1778;47.966;7.854;2023-03-21T06:51:20;6.60;99.90
3528;DHT22;1778;47.966;7.854;2023-03-21T06:52:38;6.60;99.90
3528;DHT22;1778;47.966;7.854;2023-03-21T06:53:40;6.70;99.90
3528;DHT22;1778;47.966;7.854;2023-03-21T06:54:54;6.80;99.90
3528;DHT22;1778;47.966;7.854;2023-03-21T06:55:56;6.90;99.90
3528;DHT22;1778;47.966;7.854;2023-03-21T06:56:58;6.90;99.90
3528;DHT22;1778;47.966;7.854;2023-03-21T06:58:04;7.00;99.90
3528;DHT22;1778;47.966;7.854;2023-03-21T06:59:05;7.00;99.90
3528;DHT22;1778;47.966;7.854;2023-03-21T07:00:24;7.10;99.90
3528;DHT22;1778;47.966;7.854;2023-03-21T07:01:27;7.20;99.90
3528;DHT22;1778;47.966;7.854;2023-03-21T07:02:37;7.30;99.90
3528;DHT22;1778;47.966;7.854;2023-03-21T07:03:44;7.30;99.90
3528;DHT22;1778;47.966;7.854;2023-03-21T07:04:45;7.40;99.90
3528;DHT22;1778;47.966;7.854;2023-03-21T07:05:52;7.50;99.90
3528;DHT22;1778;47.966;7.854;2023-03-21T07:06:55;7.60;99.90
3528;DHT22;1778;47.966;7.854;2023-03-21T07:07:56;7.60;99.90
3528;DHT22;1778;47.966;7.854;2023-03-21T07:09:01;7.70;99.90
3528;DHT22;1778;47.966;7.854;2023-03-21T07:10:08;7.70;99.90
3528;DHT22;1778;47.966;7.854;2023-03-21T07:11:25;7.80;99.90
3528;DHT22;1778;47.966;7.854;2023-03-21T07:12:27;7.80;99.90
3528;DHT22;1778;47.966;7.854;2023-03-21T07:13:51;7.90;99.90
3528;DHT22;1778;47.966;7.854;2023-03-21T07:14:52;8.00;99.90
3528;DHT22;1778;47.966;7.854;2023-03-21T07:15:54;8.10;99.90
3528;DHT22;1778;47.966;7.854;2023-03-21T07:16:56;8.10;99.90
3528;DHT22;1778;47.966;7.854;2023-03-21T07:17:58;8.20;99.90
3528;DHT22;1778;47.966;7.854;2023-03-21T07:19:00;8.20;99.90
3528;DHT22;1778;47.966;7.854;2023-03-21T07:20:02;8.30;99.90
3528;DHT22;1778;47.966;7.854;2023-03-21T07:21:08;8.40;99.90
3528;DHT22;1778;47.966;7.854;2023-03-21T07:22:11;8.40;99.90
3528;DHT22;1778;47.966;7.854;2023-03-21T07:23:12;8.50;99.90
3528;DHT22;1778;47.966;7.854;2023-03-21T07:24:14;8.60;99.90
3528;DHT22;1778;47.966;7.854;2023-03-21T07:25:15;8.60;99.90
3528;DHT22;1778;47.966;7.854;2023-03-21T07:26:17;8.70;99.90
3528;DHT22;1778;47.966;7.854;2023-03-21T07:27:19;8.80;99.90
3528;DHT22;1778;47.966;7.854;2023-03-21T07:28:22;8.90;99.90
3528;DHT22;1778;47.966;7.854;2023-03-21T07:29:24;9.00;99.90
3528;DHT22;1778;47.966;7.854;2023-03-21T07:30:26;9.00;99.90
3528;DHT22;1778;47.966;7.854;2023-03-21T07:31:27;9.00;99.90
3528;DHT22;1778;47.966;7.854;2023-03-21T07:32:33;9.10;99.90
3528;DHT22;1778;47.966;7.854;2023-03-21T07:33:35;9.10;99.90
3528;DHT22;1778;47.966;7.854;2023-03-21T07:34:37;8.90;99.90
3528;DHT22;1778;47.966;7.854;2023-03-21T07:35:38;8.80;99.90
3528;DHT22;1778;47.966;7.854;2023-03-21T07:36:41;8.80;99.90
3528;DHT22;1778;47.966;7.854;2023-03-21T07:37:43;8.70;99.90
3528;DHT22;1778;47.966;7.854;2023-03-21T07:38:48;8.70;99.90
3528;DHT22;1778;47.966;7.854;2023-03-21T07:39:54;8.70;99.90
3528;DHT22;1778;47.966;7.854;2023-03-21T07:40:59;8.70;99.90
3528;DHT22;1778;47.966;7.854;2023-03-21T07:42:04;8.80;99.90
3528;DHT22;1778;47.966;7.854;2023-03-21T07:43:11;8.90;99.90
3528;DHT22;1778;47.966;7.854;2023-03-21T07:44:16;8.90;99.90
3528;DHT22;1778;47.966;7.854;2023-03-21T07:45:18;8.90;99.90
3528;DHT22;1778;47.966;7.854;2023-03-21T07:46:22;9.00;99.90
3528;DHT22;1778;47.966;7.854;2023-03-21T07:47:23;9.10;99.90
3528;DHT22;1778;47.966;7.854;2023-03-21T07:48:25;9.20;99.90
3528;DHT22;1778;47.966;7.854;2023-03-21T07:49:27;9.30;99.90
3528;DHT22;1778;47.966;7.854;2023-03-21T07:50:29;9.40;99.90
3528;DHT22;1778;47.966;7.854;2023-03-21T07:51:30;9.40;99.90
3528;DHT22;1778;47.966;7.854;2023-03-21T07:52:32;9.40;99.90
3528;DHT22;1778;47.966;7.854;2023-03-21T07:53:34;9.40;99.90
3528;DHT22;1778;47.966;7.854;2023-03-21T07:54:35;9.40;99.90
3528;DHT22;1778;47.966;7.854;2023-03-21T07:55:37;9.50;99.90
3528;DHT22;1778;47.966;7.854;2023-03-21T07:56:39;9.50;99.90
3528;DHT22;1778;47.966;7.854;2023-03-21T07:57:42;9.50;99.90
3528;DHT22;1778;47.966;7.854;2023-03-21T07:58:43;9.50;99.90